Time;durP1;ratioP1;P1;durP2;ratioP2;P2;SDS_P1;SDS_P2;PMS_P1;PMS_P2;Temp;Humidity;BMP_temperature;BMP_pressure;BME280_temperature;BME280_humidity;BME280_pressure;Samples;Min_cycle;Max_cycle;Signal;HPM_P1;HPM_P2
2024/02/17 00:01:39;;;;;;;;;;;;;;;;;;5082130;28;19912;-78
2024/02/17 00:04:05;;;;;;;;;;;;;;;;;;5080356;28;19987;-78
2024/02/17 00:06:30;;;;;;;;;;;;;;;;;;5082101;28;19920;-78
2024/02/17 00:08:55;;;;;;;;;;;;;;;;;;5085742;28;19935;-78
2024/02/17 00:11:20;;;;;;;;;;;;;;;;;;5080730;28;19959;-78
2024/02/17 00:13:45;;;;;;;;;;;;;;;;;;5065742;28;19962;-78
2024/02/17 00:16:10;;;;;;;;;;;;;;;;;;5079020;28;19928;-78
2024/02/17 00:18:36;;;;;;;;;;;;;;;;;;5079797;28;19981;-77
2024/02/17 00:21:03;;;;;;;;;;;;;;;;;;5082586;28;19928;-76
2024/02/17 00:23:28;;;;;;;;;;;;;;;;;;5083889;28;19916;-78
2024/02/17 00:25:53;;;;;;;;;;;;;;;;;;5064287;28;19923;-79
2024/02/17 00:28:21;;;;;;;;;;;;;;;;;;5081254;28;19970;-78
2024/02/17 00:30:47;;;;;;;;;;;;;;;;;;5081955;28;20435;-72
2024/02/17 00:33:12;;;;;;;;;;;;;;;;;;5083623;28;19969;-72
2024/02/17 00:35:37;;;;;;;;;;;;;;;;;;5077757;28;19919;-73
2024/02/17 00:38:02;;;;;;;;;;;;;;;;;;5084738;28;19912;-72
2024/02/17 00:40:27;;;;;;;;;;;;;;;;;;5082826;28;19916;-73
2024/02/17 00:42:53;;;;;;;;;;;;;;;;;;5083092;28;20019;-72
2024/02/17 00:45:18;;;;;;;;;;;;;;;;;;5081901;28;19912;-73
2024/02/17 00:47:43;;;;;;;;;;;;;;;;;;5079968;28;19912;-73
2024/02/17 00:50:08;;;;;;;;;;;;;;;;;;5080952;28;19912;-72
2024/02/17 00:52:33;;;;;;;;;;;;;;;;;;5079719;28;19939;-72
2024/02/17 00:54:58;;;;;;;;;;;;;;;;;;5081511;28;19916;-72
2024/02/17 00:57:23;;;;;;;;;;;;;;;;;;5082967;28;20011;-72
2024/02/17 00:59:48;;;;;;;;;;;;;;;;;;5080863;28;19958;-72
2024/02/17 01:02:14;;;;;;;;;;;;;;;;;;5079619;28;19912;-72
2024/02/17 01:04:39;;;;;;;;;;;;;;;;;;5082694;28;19912;-72
2024/02/17 01:07:04;;;;;;;;;;;;;;;;;;5078805;28;20008;-72
2024/02/17 01:09:29;;;;;;;;;;;;;;;;;;5080201;28;20006;-72
2024/02/17 01:11:54;;;;;;;;;;;;;;;;;;5082686;28;19919;-72
2024/02/17 01:14:21;;;;;;;;;;;;;;;;;;5079100;28;20426;-72
2024/02/17 01:16:46;;;;;;;;;;;;;;;;;;5080376;28;19916;-71
2024/02/17 01:19:11;;;;;;;;;;;;;;;;;;5082332;28;19919;-71
2024/02/17 01:21:36;;;;;;;;;;;;;;;;;;5081436;28;19916;-71
2024/02/17 01:24:01;;;;;;;;;;;;;;;;;;5081373;28;19950;-72
2024/02/17 01:26:27;;;;;;;;;;;;;;;;;;5083263;28;19920;-72
2024/02/17 01:28:52;;;;;;;;;;;;;;;;;;5080250;28;19913;-72
2024/02/17 01:31:17;;;;;;;;;;;;;;;;;;5080176;28;20395;-72
2024/02/17 01:33:42;;;;;;;;;;;;;;;;;;5087221;28;19959;-72
2024/02/17 01:36:07;;;;;;;;;;;;;;;;;;5083475;28;19923;-72
2024/02/17 01:38:32;;;;;;;;;;;;;;;;;;5083377;28;19923;-72
2024/02/17 01:40:58;;;;;;;;;;;;;;;;;;5080881;28;19982;-75
2024/02/17 01:43:23;;;;;;;;;;;;;;;;;;5082285;28;19961;-74
2024/02/17 01:45:48;;;;;;;;;;;;;;;;;;5081062;28;19951;-74
2024/02/17 01:48:14;;;;;;;;;;;;;;;;;;5081584;28;19927;-75
2024/02/17 01:50:39;;;;;;;;;;;;;;;;;;5062068;28;19912;-75
2024/02/17 01:53:04;;;;;;;;;;;;;;;;;;5082159;28;19923;-74
2024/02/17 01:55:29;;;;;;;;;;;;;;;;;;5081329;28;19957;-75
2024/02/17 01:57:54;;;;;;;;;;;;;;;;;;5080154;28;19913;-75
2024/02/17 02:00:19;;;;;;;;;;;;;;;;;;5086092;28;19916;-75
2024/02/17 02:02:48;;;;;;;;;;;;;;;;;;5084086;28;20007;-75
2024/02/17 02:05:14;;;;;;;;;;;;;;;;;;5086631;28;19916;-75
2024/02/17 02:07:39;;;;;;;;;;;;;;;;;;5084742;28;19972;-75
2024/02/17 02:10:04;;;;;;;;;;;;;;;;;;5085835;28;20342;-74
2024/02/17 02:12:29;;;;;;;;;;;;;;;;;;5085315;28;19912;-75
2024/02/17 02:14:54;;;;;;;;;;;;;;;;;;5081120;28;19998;-75
2024/02/17 02:17:20;;;;;;;;;;;;;;;;;;5082022;28;19974;-75
2024/02/17 02:19:47;;;;;;;;;;;;;;;;;;5088611;28;20016;-75
2024/02/17 02:22:12;;;;;;;;;;;;;;;;;;5083900;28;19923;-75
2024/02/17 02:24:37;;;;;;;;;;;;;;;;;;5087064;28;19916;-75
2024/02/17 02:27:02;;;;;;;;;;;;;;;;;;5088939;28;19970;-75
2024/02/17 02:29:27;;;;;;;;;;;;;;;;;;5090000;28;19923;-75
2024/02/17 02:31:54;;;;;;;;;;;;;;;;;;5086549;28;19912;-75
2024/02/17 02:34:19;;;;;;;;;;;;;;;;;;5086434;28;20390;-75
2024/02/17 02:36:44;;;;;;;;;;;;;;;;;;5090489;28;19913;-75
2024/02/17 02:39:10;;;;;;;;;;;;;;;;;;5088151;28;20011;-75
2024/02/17 02:41:35;;;;;;;;;;;;;;;;;;5085981;28;19929;-75
2024/02/17 02:44:00;;;;;;;;;;;;;;;;;;5085750;28;20843;-74
2024/02/17 02:46:25;;;;;;;;;;;;;;;;;;5088602;28;19923;-74
2024/02/17 02:48:50;;;;;;;;;;;;;;;;;;5090575;28;19912;-75
2024/02/17 02:51:16;;;;;;;;;;;;;;;;;;5091590;28;19992;-75
2024/02/17 02:53:42;;;;;;;;;;;;;;;;;;5093294;28;19953;-75
2024/02/17 02:56:07;;;;;;;;;;;;;;;;;;5075649;28;19908;-75
2024/02/17 02:58:33;;;;;;;;;;;;;;;;;;5090690;28;20422;-75
2024/02/17 03:00:58;;;;;;;;;;;;;;;;;;5085693;28;19965;-75
2024/02/17 03:03:23;;;;;;;;;;;;;;;;;;5091394;28;19919;-75
2024/02/17 03:05:48;;;;;;;;;;;;;;;;;;5088465;28;19916;-74
2024/02/17 03:08:14;;;;;;;;;;;;;;;;;;5084241;28;20442;-75
2024/02/17 03:10:39;;;;;;;;;;;;;;;;;;5083890;28;19916;-76
2024/02/17 03:13:04;;;;;;;;;;;;;;;;;;5089755;28;19916;-75
2024/02/17 03:15:29;;;;;;;;;;;;;;;;;;5092026;28;19923;-75
2024/02/17 03:17:54;;;;;;;;;;;;;;;;;;5091739;28;19916;-75
2024/02/17 03:20:19;;;;;;;;;;;;;;;;;;5084633;28;19963;-75
2024/02/17 03:22:45;;;;;;;;;;;;;;;;;;5088678;28;20285;-75
2024/02/17 03:25:10;;;;;;;;;;;;;;;;;;5091700;28;19912;-75
2024/02/17 03:27:35;;;;;;;;;;;;;;;;;;5091612;28;19931;-76
2024/02/17 03:30:04;;;;;;;;;;;;;;;;;;5081474;28;19920;-76
2024/02/17 03:32:30;;;;;;;;;;;;;;;;;;5087415;28;19913;-75
2024/02/17 03:34:55;;;;;;;;;;;;;;;;;;5090997;28;19916;-75
2024/02/17 03:37:21;;;;;;;;;;;;;;;;;;5090960;28;19919;-75
2024/02/17 03:39:48;;;;;;;;;;;;;;;;;;5089935;28;20343;-75
2024/02/17 03:42:13;;;;;;;;;;;;;;;;;;5091268;28;19925;-76
2024/02/17 03:44:38;;;;;;;;;;;;;;;;;;5090081;28;19912;-75
2024/02/17 03:47:03;;;;;;;;;;;;;;;;;;5085312;28;19922;-75
2024/02/17 03:49:28;;;;;;;;;;;;;;;;;;5064025;28;20085;-74
2024/02/17 03:51:54;;;;;;;;;;;;;;;;;;5090868;28;19916;-75
2024/02/17 03:54:19;;;;;;;;;;;;;;;;;;5081188;28;20395;-75
2024/02/17 03:56:44;;;;;;;;;;;;;;;;;;5081881;28;19920;-73
2024/02/17 03:59:09;;;;;;;;;;;;;;;;;;5090455;28;19912;-75
2024/02/17 04:01:35;;;;;;;;;;;;;;;;;;5086661;28;20398;-73
2024/02/17 04:04:03;;;;;;;;;;;;;;;;;;5080805;28;19916;-73
2024/02/17 04:06:28;;;;;;;;;;;;;;;;;;5085161;28;20012;-73
2024/02/17 04:08:53;;;;;;;;;;;;;;;;;;5081720;28;19963;-73
2024/02/17 04:11:18;;;;;;;;;;;;;;;;;;5089071;28;19912;-72
2024/02/17 04:13:43;;;;;;;;;;;;;;;;;;5068031;28;19920;-73
2024/02/17 04:16:09;;;;;;;;;;;;;;;;;;5085086;28;19991;-73
2024/02/17 04:18:34;;;;;;;;;;;;;;;;;;5087664;28;20416;-73
2024/02/17 04:20:59;;;;;;;;;;;;;;;;;;5089562;28;19969;-73
2024/02/17 04:23:24;;;;;;;;;;;;;;;;;;5085925;28;19913;-73
2024/02/17 04:25:50;;;;;;;;;;;;;;;;;;5088304;28;19926;-73
2024/02/17 04:28:15;;;;;;;;;;;;;;;;;;5086081;28;19912;-74
2024/02/17 04:30:40;;;;;;;;;;;;;;;;;;5086521;28;19928;-73
2024/02/17 04:33:06;;;;;;;;;;;;;;;;;;5094022;28;19920;-73
2024/02/17 04:35:31;;;;;;;;;;;;;;;;;;5085054;28;20034;-74
2024/02/17 04:37:56;;;;;;;;;;;;;;;;;;5089019;28;19916;-73
2024/02/17 04:40:21;;;;;;;;;;;;;;;;;;5089388;28;20284;-75
2024/02/17 04:42:46;;;;;;;;;;;;;;;;;;5085058;28;19973;-73
2024/02/17 04:45:12;;;;;;;;;;;;;;;;;;5086177;28;19919;-72
2024/02/17 04:47:37;;;;;;;;;;;;;;;;;;5087880;28;20277;-73
2024/02/17 04:50:02;;;;;;;;;;;;;;;;;;5081671;28;19923;-74
2024/02/17 04:52:27;;;;;;;;;;;;;;;;;;5087788;28;19912;-73
2024/02/17 04:54:52;;;;;;;;;;;;;;;;;;5080066;28;19912;-73
2024/02/17 04:57:17;;;;;;;;;;;;;;;;;;5084551;28;19919;-74
2024/02/17 04:59:43;;;;;;;;;;;;;;;;;;5086477;28;20002;-74
2024/02/17 05:02:08;;;;;;;;;;;;;;;;;;5087566;28;19937;-73
2024/02/17 05:04:33;;;;;;;;;;;;;;;;;;5086754;28;19912;-73
2024/02/17 05:06:58;;;;;;;;;;;;;;;;;;5085723;28;19916;-73
2024/02/17 05:09:25;;;;;;;;;;;;;;;;;;5087588;28;19919;-73
2024/02/17 05:11:50;;;;;;;;;;;;;;;;;;5085004;28;19912;-78
2024/02/17 05:14:19;;;;;;;;;;;;;;;;;;5084797;28;19962;-79
2024/02/17 05:16:44;;;;;;;;;;;;;;;;;;5084206;28;20287;-78
2024/02/17 05:19:09;;;;;;;;;;;;;;;;;;5088008;28;20341;-78
2024/02/17 05:21:34;;;;;;;;;;;;;;;;;;5088280;28;20288;-78
2024/02/17 05:23:59;;;;;;;;;;;;;;;;;;5080364;28;20346;-79
2024/02/17 05:26:24;;;;;;;;;;;;;;;;;;5081043;28;19955;-77
2024/02/17 05:28:50;;;;;;;;;;;;;;;;;;5089711;28;19918;-79
2024/02/17 05:31:15;;;;;;;;;;;;;;;;;;5082726;28;20364;-76
2024/02/17 05:33:40;;;;;;;;;;;;;;;;;;5089185;28;19962;-76
2024/02/17 05:36:06;;;;;;;;;;;;;;;;;;5083361;28;19920;-76
2024/02/17 05:38:31;;;;;;;;;;;;;;;;;;5064340;28;20020;-77
2024/02/17 05:40:56;;;;;;;;;;;;;;;;;;5083510;28;19974;-77
2024/02/17 05:43:21;;;;;;;;;;;;;;;;;;5083041;28;19924;-77
2024/02/17 05:45:47;;;;;;;;;;;;;;;;;;5080911;28;19961;-76
2024/02/17 05:48:12;;;;;;;;;;;;;;;;;;5083201;28;19912;-77
2024/02/17 05:50:38;;;;;;;;;;;;;;;;;;5088426;28;19912;-77
2024/02/17 05:53:03;;;;;;;;;;;;;;;;;;5083036;28;19959;-77
2024/02/17 05:55:28;;;;;;;;;;;;;;;;;;5089030;28;19912;-76
2024/02/17 05:57:53;;;;;;;;;;;;;;;;;;5085104;28;20035;-77
2024/02/17 06:00:18;;;;;;;;;;;;;;;;;;5081922;28;20287;-77
2024/02/17 06:02:44;;;;;;;;;;;;;;;;;;5091756;28;20021;-77
2024/02/17 06:05:10;;;;;;;;;;;;;;;;;;5082410;28;20372;-77
2024/02/17 06:07:35;;;;;;;;;;;;;;;;;;5087512;28;19927;-77
2024/02/17 06:10:00;;;;;;;;;;;;;;;;;;5071405;28;19912;-74
2024/02/17 06:12:25;;;;;;;;;;;;;;;;;;5087750;28;19916;-74
2024/02/17 06:14:50;;;;;;;;;;;;;;;;;;5090262;28;19965;-77
2024/02/17 06:17:22;;;;;;;;;;;;;;;;;;5088151;28;20376;-77
2024/02/17 06:22:31;;;;;;;;;;;;;;;;;;5088720;28;19931;-74
2024/02/17 06:24:56;;;;;;;;;;;;;;;;;;5090858;28;19916;-75
2024/02/17 06:27:21;;;;;;;;;;;;;;;;;;5088994;28;19924;-74
2024/02/17 06:29:46;;;;;;;;;;;;;;;;;;5069567;28;20020;-74
2024/02/17 06:32:12;;;;;;;;;;;;;;;;;;5088162;28;20064;-74
2024/02/17 06:34:37;;;;;;;;;;;;;;;;;;5090792;28;20352;-74
2024/02/17 06:37:03;;;;;;;;;;;;;;;;;;5091786;28;20004;-75
2024/02/17 06:39:29;;;;;;;;;;;;;;;;;;5072487;28;20379;-76
2024/02/17 06:41:54;;;;;;;;;;;;;;;;;;5089488;28;19928;-75
2024/02/17 06:44:23;;;;;;;;;;;;;;;;;;5087840;28;19912;-75
2024/02/17 06:46:50;;;;;;;;;;;;;;;;;;5090746;28;19923;-75
2024/02/17 06:49:16;;;;;;;;;;;;;;;;;;5089527;28;19955;-76
2024/02/17 06:51:41;;;;;;;;;;;;;;;;;;5082903;28;19962;-74
2024/02/17 06:54:06;;;;;;;;;;;;;;;;;;5072905;28;19985;-75
2024/02/17 06:56:33;;;;;;;;;;;;;;;;;;5087542;28;19923;-75
2024/02/17 06:58:58;;;;;;;;;;;;;;;;;;5085487;28;19916;-72
2024/02/17 07:01:23;;;;;;;;;;;;;;;;;;5065164;28;19958;-75
2024/02/17 07:03:49;;;;;;;;;;;;;;;;;;5088302;28;19938;-74
2024/02/17 07:06:19;;;;;;;;;;;;;;;;;;5089320;28;19927;-75
2024/02/17 07:08:46;;;;;;;;;;;;;;;;;;5089773;28;19919;-76
2024/02/17 07:11:11;;;;;;;;;;;;;;;;;;5084846;28;19924;-75
2024/02/17 07:13:36;;;;;;;;;;;;;;;;;;5085247;28;20276;-74
2024/02/17 07:16:01;;;;;;;;;;;;;;;;;;5089705;28;19920;-74
2024/02/17 07:18:26;;;;;;;;;;;;;;;;;;5070902;28;19916;-74
2024/02/17 07:20:52;;;;;;;;;;;;;;;;;;5087778;28;19951;-74
2024/02/17 07:23:18;;;;;;;;;;;;;;;;;;5091164;28;19916;-74
2024/02/17 07:25:44;;;;;;;;;;;;;;;;;;5082344;28;19957;-74
2024/02/17 07:28:12;;;;;;;;;;;;;;;;;;5082237;28;19973;-74
2024/02/17 07:30:37;;;;;;;;;;;;;;;;;;5090611;28;20284;-74
2024/02/17 07:33:02;;;;;;;;;;;;;;;;;;5090687;28;19912;-72
2024/02/17 07:35:27;;;;;;;;;;;;;;;;;;5088448;28;19912;-72
2024/02/17 07:37:52;;;;;;;;;;;;;;;;;;5085954;28;19919;-73
2024/02/17 07:40:17;;;;;;;;;;;;;;;;;;5086145;28;19917;-73
2024/02/17 07:42:43;;;;;;;;;;;;;;;;;;5090667;28;20379;-73
2024/02/17 07:45:08;;;;;;;;;;;;;;;;;;5091112;28;19919;-72
2024/02/17 07:47:33;;;;;;;;;;;;;;;;;;5090739;28;19951;-73
2024/02/17 07:49:59;;;;;;;;;;;;;;;;;;5085396;28;19923;-72
2024/02/17 07:52:24;;;;;;;;;;;;;;;;;;5087829;28;19912;-72
2024/02/17 07:54:49;;;;;;;;;;;;;;;;;;5087981;28;19954;-72
2024/02/17 07:57:15;;;;;;;;;;;;;;;;;;5086909;28;20319;-73
2024/02/17 07:59:40;;;;;;;;;;;;;;;;;;5068944;28;19965;-72
2024/02/17 08:02:05;;;;;;;;;;;;;;;;;;5085584;28;20392;-73
2024/02/17 08:04:30;;;;;;;;;;;;;;;;;;5087657;28;19951;-72
2024/02/17 08:06:56;;;;;;;;;;;;;;;;;;5087435;28;19927;-71
2024/02/17 08:09:21;;;;;;;;;;;;;;;;;;5089295;28;19924;-72
2024/02/17 08:11:46;;;;;;;;;;;;;;;;;;5087965;28;19962;-74
2024/02/17 08:14:15;;;;;;;;;;;;;;;;;;5085180;28;19920;-72
2024/02/17 08:16:40;;;;;;;;;;;;;;;;;;5087477;28;19916;-71
2024/02/17 08:19:05;;;;;;;;;;;;;;;;;;5086939;28;19957;-73
2024/02/17 08:21:31;;;;;;;;;;;;;;;;;;5065224;28;19916;-72
2024/02/17 08:23:57;;;;;;;;;;;;;;;;;;5082007;28;20011;-72
2024/02/17 08:26:22;;;;;;;;;;;;;;;;;;5078343;28;20004;-74
2024/02/17 08:28:47;;;;;;;;;;;;;;;;;;5085861;28;19926;-72
2024/02/17 08:31:12;;;;;;;;;;;;;;;;;;5079361;28;19920;-72
2024/02/17 08:33:37;;;;;;;;;;;;;;;;;;5082997;28;19916;-72
2024/02/17 08:36:02;;;;;;;;;;;;;;;;;;5086983;28;19920;-72
2024/02/17 08:38:27;;;;;;;;;;;;;;;;;;5083336;28;19958;-72
2024/02/17 08:40:52;;;;;;;;;;;;;;;;;;5088414;28;19920;-72
2024/02/17 08:43:18;;;;;;;;;;;;;;;;;;5080340;28;20061;-72
2024/02/17 08:45:43;;;;;;;;;;;;;;;;;;5084237;28;19985;-71
2024/02/17 08:48:08;;;;;;;;;;;;;;;;;;5080101;28;19928;-72
2024/02/17 08:50:33;;;;;;;;;;;;;;;;;;5081732;28;19919;-72
2024/02/17 08:52:58;;;;;;;;;;;;;;;;;;5062418;28;19916;-71
2024/02/17 08:55:23;;;;;;;;;;;;;;;;;;5082353;28;19919;-72
2024/02/17 08:57:48;;;;;;;;;;;;;;;;;;5086179;28;19942;-71
2024/02/17 09:00:14;;;;;;;;;;;;;;;;;;5084695;28;20249;-71
2024/02/17 09:02:39;;;;;;;;;;;;;;;;;;5084201;28;19912;-72
2024/02/17 09:05:05;;;;;;;;;;;;;;;;;;5083894;28;19947;-72
2024/02/17 09:07:30;;;;;;;;;;;;;;;;;;5087150;28;19916;-72
2024/02/17 09:09:55;;;;;;;;;;;;;;;;;;5081239;28;19927;-72
2024/02/17 09:12:20;;;;;;;;;;;;;;;;;;5083964;28;19916;-72
2024/02/17 09:14:45;;;;;;;;;;;;;;;;;;5063572;28;20050;-72
2024/02/17 09:17:11;;;;;;;;;;;;;;;;;;5083032;28;19927;-72
2024/02/17 09:19:36;;;;;;;;;;;;;;;;;;5085111;28;20295;-72
2024/02/17 09:22:01;;;;;;;;;;;;;;;;;;5089212;28;20641;-72
2024/02/17 09:24:27;;;;;;;;;;;;;;;;;;5070286;28;20886;-72
2024/02/17 09:26:55;;;;;;;;;;;;;;;;;;5088830;28;19916;-72
2024/02/17 09:29:20;;;;;;;;;;;;;;;;;;5088916;28;19944;-72
2024/02/17 09:31:45;;;;;;;;;;;;;;;;;;5088710;28;19962;-71
2024/02/17 09:34:10;;;;;;;;;;;;;;;;;;5088941;28;19924;-71
2024/02/17 09:36:35;;;;;;;;;;;;;;;;;;5083707;28;19912;-72
2024/02/17 09:39:00;;;;;;;;;;;;;;;;;;5084591;28;19920;-71
2024/02/17 09:41:25;;;;;;;;;;;;;;;;;;5087744;28;19924;-71
2024/02/17 09:43:50;;;;;;;;;;;;;;;;;;5084208;28;19969;-72
2024/02/17 09:46:16;;;;;;;;;;;;;;;;;;5083247;28;19973;-72
2024/02/17 09:48:41;;;;;;;;;;;;;;;;;;5087175;28;19999;-71
2024/02/17 09:51:06;;;;;;;;;;;;;;;;;;5087089;28;19916;-71
2024/02/17 09:53:31;;;;;;;;;;;;;;;;;;5088857;28;19919;-73
2024/02/17 09:55:56;;;;;;;;;;;;;;;;;;5085033;28;19916;-73
2024/02/17 09:58:22;;;;;;;;;;;;;;;;;;5082511;28;19927;-74
2024/02/17 10:00:47;;;;;;;;;;;;;;;;;;5083341;28;19988;-73
2024/02/17 10:03:14;;;;;;;;;;;;;;;;;;5087882;28;19955;-74
2024/02/17 10:05:39;;;;;;;;;;;;;;;;;;5066009;28;19916;-73
2024/02/17 10:08:05;;;;;;;;;;;;;;;;;;5085082;28;19923;-74
2024/02/17 10:10:30;;;;;;;;;;;;;;;;;;5085603;28;20291;-73
2024/02/17 10:12:55;;;;;;;;;;;;;;;;;;5061795;28;19920;-74
2024/02/17 10:15:21;;;;;;;;;;;;;;;;;;5062923;28;19975;-73
2024/02/17 10:17:46;;;;;;;;;;;;;;;;;;5085910;28;20758;-74
2024/02/17 10:20:11;;;;;;;;;;;;;;;;;;5082328;28;19919;-73
2024/02/17 10:22:36;;;;;;;;;;;;;;;;;;5082333;28;20061;-73
2024/02/17 10:25:01;;;;;;;;;;;;;;;;;;5066047;28;19966;-74
2024/02/17 10:27:26;;;;;;;;;;;;;;;;;;5085556;28;20419;-73
2024/02/17 10:29:52;;;;;;;;;;;;;;;;;;5086768;28;19912;-74
2024/02/17 10:32:17;;;;;;;;;;;;;;;;;;5080724;28;19916;-73
2024/02/17 10:34:42;;;;;;;;;;;;;;;;;;5085054;28;19927;-73
2024/02/17 10:37:07;;;;;;;;;;;;;;;;;;5080055;28;19916;-74
2024/02/17 10:39:32;;;;;;;;;;;;;;;;;;5084036;28;19956;-73
2024/02/17 10:41:57;;;;;;;;;;;;;;;;;;5079438;28;19924;-74
2024/02/17 10:44:23;;;;;;;;;;;;;;;;;;5087528;28;20304;-74
2024/02/17 10:46:48;;;;;;;;;;;;;;;;;;5084691;28;19923;-73
2024/02/17 10:49:13;;;;;;;;;;;;;;;;;;5089162;28;19912;-73
2024/02/17 10:51:39;;;;;;;;;;;;;;;;;;5085980;28;19963;-73
2024/02/17 10:54:04;;;;;;;;;;;;;;;;;;5088566;28;19912;-74
2024/02/17 10:56:29;;;;;;;;;;;;;;;;;;5086238;28;19915;-74
2024/02/17 10:58:54;;;;;;;;;;;;;;;;;;5087892;28;19916;-73
2024/02/17 11:01:19;;;;;;;;;;;;;;;;;;5088867;28;20344;-74
2024/02/17 11:03:44;;;;;;;;;;;;;;;;;;5089508;28;19919;-72
2024/02/17 11:06:10;;;;;;;;;;;;;;;;;;5086413;28;19916;-71
2024/02/17 11:08:35;;;;;;;;;;;;;;;;;;5081642;28;20011;-71
2024/02/17 11:11:00;;;;;;;;;;;;;;;;;;5088542;28;19999;-72
2024/02/17 11:13:26;;;;;;;;;;;;;;;;;;5084872;28;19920;-72
2024/02/17 11:15:51;;;;;;;;;;;;;;;;;;5085486;28;20003;-72
2024/02/17 11:18:16;;;;;;;;;;;;;;;;;;5085269;28;20292;-72
2024/02/17 11:20:42;;;;;;;;;;;;;;;;;;5085266;28;20548;-73
2024/02/17 11:23:07;;;;;;;;;;;;;;;;;;5084178;28;20364;-72
2024/02/17 11:25:35;;;;;;;;;;;;;;;;;;5084294;28;19927;-73
2024/02/17 11:28:00;;;;;;;;;;;;;;;;;;5090521;28;20284;-72
2024/02/17 11:30:25;;;;;;;;;;;;;;;;;;5088203;28;20299;-72
2024/02/17 11:32:50;;;;;;;;;;;;;;;;;;5086477;28;19912;-72
2024/02/17 11:35:17;;;;;;;;;;;;;;;;;;5086005;28;19991;-72
2024/02/17 11:37:44;;;;;;;;;;;;;;;;;;5084339;28;19912;-72
2024/02/17 11:40:09;;;;;;;;;;;;;;;;;;5087976;28;19916;-72
2024/02/17 11:42:34;;;;;;;;;;;;;;;;;;5048916;28;19970;-71
2024/02/17 11:45:00;;;;;;;;;;;;;;;;;;5069090;28;19973;-71
2024/02/17 11:47:29;;;;;;;;;;;;;;;;;;5064200;28;19927;-72
2024/02/17 11:49:55;;;;;;;;;;;;;;;;;;5066190;28;20395;-72
2024/02/17 11:52:20;;;;;;;;;;;;;;;;;;5046536;28;19917;-72
2024/02/17 11:54:45;;;;;;;;;;;;;;;;;;5063253;28;19916;-72
2024/02/17 11:57:11;;;;;;;;;;;;;;;;;;5066083;28;20362;-71
2024/02/17 11:59:36;;;;;;;;;;;;;;;;;;5066194;28;19921;-72
2024/02/17 12:02:01;;;;;;;;;;;;;;;;;;5063184;28;19912;-71
2024/02/17 12:04:26;;;;;;;;;;;;;;;;;;5068814;28;19955;-72
2024/02/17 12:06:51;;;;;;;;;;;;;;;;;;5066816;28;19924;-73
2024/02/17 12:09:16;;;;;;;;;;;;;;;;;;5064697;28;19912;-71
2024/02/17 12:11:42;;;;;;;;;;;;;;;;;;5061432;28;19956;-72
2024/02/17 12:14:08;;;;;;;;;;;;;;;;;;5065559;28;20442;-74
2024/02/17 12:16:34;;;;;;;;;;;;;;;;;;5065984;28;19913;-74
2024/02/17 12:18:59;;;;;;;;;;;;;;;;;;5069186;28;19980;-74
2024/02/17 12:21:24;;;;;;;;;;;;;;;;;;5069112;28;19943;-74
2024/02/17 12:23:49;;;;;;;;;;;;;;;;;;5066899;28;19916;-74
2024/02/17 12:26:14;;;;;;;;;;;;;;;;;;5061883;28;19916;-74
2024/02/17 12:28:40;;;;;;;;;;;;;;;;;;5066678;28;19912;-74
2024/02/17 12:31:06;;;;;;;;;;;;;;;;;;5045969;28;19920;-74
2024/02/17 12:33:31;;;;;;;;;;;;;;;;;;5061663;28;19920;-74
2024/02/17 12:35:56;;;;;;;;;;;;;;;;;;5063925;28;19916;-74
2024/02/17 12:38:23;;;;;;;;;;;;;;;;;;5068386;28;19912;-74
2024/02/17 12:40:48;;;;;;;;;;;;;;;;;;5072712;28;20288;-74
2024/02/17 12:43:14;;;;;;;;;;;;;;;;;;5083913;28;20003;-74
2024/02/17 12:45:39;;;;;;;;;;;;;;;;;;5084239;28;19952;-71
2024/02/17 12:48:05;;;;;;;;;;;;;;;;;;5087999;28;19955;-72
2024/02/17 12:50:30;;;;;;;;;;;;;;;;;;5084895;28;19912;-71
2024/02/17 12:52:55;;;;;;;;;;;;;;;;;;5083638;28;20591;-72
2024/02/17 12:55:20;;;;;;;;;;;;;;;;;;5082039;28;19915;-71
2024/02/17 12:57:45;;;;;;;;;;;;;;;;;;5082698;28;19917;-72
2024/02/17 13:00:11;;;;;;;;;;;;;;;;;;5084984;28;20001;-70
2024/02/17 13:02:36;;;;;;;;;;;;;;;;;;5086572;28;19927;-71
2024/02/17 13:05:01;;;;;;;;;;;;;;;;;;5085537;28;19923;-71
2024/02/17 13:07:28;;;;;;;;;;;;;;;;;;5084032;28;19916;-71
2024/02/17 13:09:53;;;;;;;;;;;;;;;;;;5087251;28;20348;-71
2024/02/17 13:12:18;;;;;;;;;;;;;;;;;;5086522;28;19912;-71
2024/02/17 13:14:44;;;;;;;;;;;;;;;;;;5079269;28;20001;-71
2024/02/17 13:17:09;;;;;;;;;;;;;;;;;;5083310;28;19934;-71
2024/02/17 13:19:34;;;;;;;;;;;;;;;;;;5082731;28;19966;-71
2024/02/17 13:22:00;;;;;;;;;;;;;;;;;;5083267;28;19962;-70
2024/02/17 13:24:25;;;;;;;;;;;;;;;;;;5067517;28;19916;-73
2024/02/17 13:26:51;;;;;;;;;;;;;;;;;;5089067;28;19969;-73
2024/02/17 13:29:16;;;;;;;;;;;;;;;;;;5084940;28;19916;-73
2024/02/17 13:31:42;;;;;;;;;;;;;;;;;;5083869;28;19922;-73
2024/02/17 13:34:07;;;;;;;;;;;;;;;;;;5083763;28;19912;-74
2024/02/17 13:36:32;;;;;;;;;;;;;;;;;;5085874;28;19923;-72
2024/02/17 13:38:58;;;;;;;;;;;;;;;;;;5080749;28;19919;-73
2024/02/17 13:41:23;;;;;;;;;;;;;;;;;;5083664;28;19920;-73
2024/02/17 13:43:48;;;;;;;;;;;;;;;;;;5082419;28;19917;-73
2024/02/17 13:46:13;;;;;;;;;;;;;;;;;;5084814;28;19968;-73
2024/02/17 13:48:38;;;;;;;;;;;;;;;;;;5080915;28;19912;-73
2024/02/17 13:51:03;;;;;;;;;;;;;;;;;;5086959;28;19969;-73
2024/02/17 13:53:28;;;;;;;;;;;;;;;;;;5088482;28;19957;-74
2024/02/17 13:55:54;;;;;;;;;;;;;;;;;;5083904;28;19965;-74
2024/02/17 13:58:19;;;;;;;;;;;;;;;;;;5083019;28;19940;-73
2024/02/17 14:00:44;;;;;;;;;;;;;;;;;;5062352;28;20265;-73
2024/02/17 14:03:09;;;;;;;;;;;;;;;;;;5082893;28;19916;-73
2024/02/17 14:05:35;;;;;;;;;;;;;;;;;;5084315;28;20620;-73
2024/02/17 14:08:00;;;;;;;;;;;;;;;;;;5081139;28;19917;-74
2024/02/17 14:10:25;;;;;;;;;;;;;;;;;;5085553;28;19969;-73
2024/02/17 14:12:50;;;;;;;;;;;;;;;;;;5081468;28;19916;-74
2024/02/17 14:15:15;;;;;;;;;;;;;;;;;;5086249;28;19916;-73
2024/02/17 14:17:40;;;;;;;;;;;;;;;;;;5087146;28;19920;-74
2024/02/17 14:20:07;;;;;;;;;;;;;;;;;;5087559;28;19927;-73
2024/02/17 14:22:32;;;;;;;;;;;;;;;;;;5088325;28;19959;-74
2024/02/17 14:24:57;;;;;;;;;;;;;;;;;;5087424;28;20004;-74
2024/02/17 14:27:22;;;;;;;;;;;;;;;;;;5090660;28;19924;-73
2024/02/17 14:29:50;;;;;;;;;;;;;;;;;;5090303;28;19916;-75
2024/02/17 14:32:19;;;;;;;;;;;;;;;;;;5086715;28;20372;-75
2024/02/17 14:34:44;;;;;;;;;;;;;;;;;;5090326;28;20626;-72
2024/02/17 14:37:09;;;;;;;;;;;;;;;;;;5083376;28;19916;-72
2024/02/17 14:39:37;;;;;;;;;;;;;;;;;;5090121;28;20441;-72
2024/02/17 14:42:02;;;;;;;;;;;;;;;;;;5086463;28;20052;-74
2024/02/17 14:44:28;;;;;;;;;;;;;;;;;;5083958;28;19925;-72
2024/02/17 14:46:53;;;;;;;;;;;;;;;;;;5082449;28;19978;-72
2024/02/17 14:49:19;;;;;;;;;;;;;;;;;;5087164;28;19920;-73
2024/02/17 14:51:47;;;;;;;;;;;;;;;;;;5084611;28;19912;-71
2024/02/17 14:54:12;;;;;;;;;;;;;;;;;;5083459;28;19981;-71
2024/02/17 14:56:37;;;;;;;;;;;;;;;;;;5082087;28;20364;-71
2024/02/17 14:59:03;;;;;;;;;;;;;;;;;;5085640;28;19912;-73
2024/02/17 15:01:28;;;;;;;;;;;;;;;;;;5086854;28;20366;-71
2024/02/17 15:03:53;;;;;;;;;;;;;;;;;;5087323;28;20292;-71
2024/02/17 15:06:19;;;;;;;;;;;;;;;;;;5089251;28;19920;-70
2024/02/17 15:08:44;;;;;;;;;;;;;;;;;;5087343;28;20012;-71
2024/02/17 15:11:09;;;;;;;;;;;;;;;;;;5084640;28;20410;-71
2024/02/17 15:13:35;;;;;;;;;;;;;;;;;;5085128;28;20045;-71
2024/02/17 15:16:00;;;;;;;;;;;;;;;;;;5091627;28;19912;-71
2024/02/17 15:18:27;;;;;;;;;;;;;;;;;;5086745;28;19924;-72
2024/02/17 15:20:53;;;;;;;;;;;;;;;;;;5087326;28;19912;-72
2024/02/17 15:23:18;;;;;;;;;;;;;;;;;;5090775;28;19928;-72
2024/02/17 15:25:45;;;;;;;;;;;;;;;;;;5090795;28;19938;-73
2024/02/17 15:28:10;;;;;;;;;;;;;;;;;;5083502;28;19919;-72
2024/02/17 15:30:35;;;;;;;;;;;;;;;;;;5079404;28;19916;-72
2024/02/17 15:33:00;;;;;;;;;;;;;;;;;;5079644;28;20342;-73
2024/02/17 15:35:25;;;;;;;;;;;;;;;;;;5083147;28;20315;-73
2024/02/17 15:37:51;;;;;;;;;;;;;;;;;;5078897;28;19919;-73
2024/02/17 15:40:16;;;;;;;;;;;;;;;;;;5081370;28;20006;-73
2024/02/17 15:42:41;;;;;;;;;;;;;;;;;;5080976;28;19968;-75
2024/02/17 15:45:06;;;;;;;;;;;;;;;;;;5080382;28;19916;-75
2024/02/17 15:47:31;;;;;;;;;;;;;;;;;;5079394;28;19916;-74
2024/02/17 15:49:56;;;;;;;;;;;;;;;;;;5077678;28;19952;-74
2024/02/17 15:52:21;;;;;;;;;;;;;;;;;;5081939;28;19920;-75
2024/02/17 15:54:47;;;;;;;;;;;;;;;;;;5080296;28;20274;-75
2024/02/17 15:57:12;;;;;;;;;;;;;;;;;;5081798;28;20277;-74
2024/02/17 15:59:37;;;;;;;;;;;;;;;;;;5087492;28;20459;-74
2024/02/17 16:02:02;;;;;;;;;;;;;;;;;;5086758;28;19958;-75
2024/02/17 16:04:27;;;;;;;;;;;;;;;;;;5089044;28;19913;-74
2024/02/17 16:06:53;;;;;;;;;;;;;;;;;;5087873;28;20442;-75
2024/02/17 16:09:18;;;;;;;;;;;;;;;;;;5068963;28;19994;-74
2024/02/17 16:11:43;;;;;;;;;;;;;;;;;;5089061;28;19912;-75
2024/02/17 16:14:08;;;;;;;;;;;;;;;;;;5085179;28;19926;-74
2024/02/17 16:16:33;;;;;;;;;;;;;;;;;;5089671;28;19927;-74
2024/02/17 16:18:59;;;;;;;;;;;;;;;;;;5086820;28;20273;-75
2024/02/17 16:21:24;;;;;;;;;;;;;;;;;;5087242;28;19927;-74
2024/02/17 16:23:49;;;;;;;;;;;;;;;;;;5083868;28;20387;-75
2024/02/17 16:26:15;;;;;;;;;;;;;;;;;;5067729;28;19916;-74
2024/02/17 16:28:41;;;;;;;;;;;;;;;;;;5082610;28;19913;-74
2024/02/17 16:31:08;;;;;;;;;;;;;;;;;;5084473;28;20006;-75
2024/02/17 16:33:34;;;;;;;;;;;;;;;;;;5083826;28;19916;-74
2024/02/17 16:36:00;;;;;;;;;;;;;;;;;;5085730;28;19943;-75